Time;durP1;ratioP1;P1;durP2;ratioP2;P2;SDS_P1;SDS_P2;PMS_P1;PMS_P2;Temp;Humidity;BMP_temperature;BMP_pressure;BME280_temperature;BME280_humidity;BME280_pressure;Samples;Min_cycle;Max_cycle;Signal;HPM_P1;HPM_P2
2021/11/26 00:01:37;;;;;;;4.35;0.82;;;13.60;57.10;;;;;;5115787;28;20047;-70
2021/11/26 00:04:05;;;;;;;4.88;1.05;;;13.50;57.20;;;;;;5116681;28;20330;-70
2021/11/26 00:06:31;;;;;;;5.90;0.85;;;13.50;57.20;;;;;;5115836;28;20056;-70
2021/11/26 00:08:57;;;;;;;2.97;0.60;;;13.50;57.40;;;;;;5116460;28;20051;-70
2021/11/26 00:11:23;;;;;;;4.57;1.17;;;13.50;57.50;;;;;;5116497;28;20085;-71
2021/11/26 00:14:00;;;;;;;3.15;0.85;;;13.50;57.40;;;;;;5116185;28;20424;-70
2021/11/26 00:16:29;;;;;;;4.15;0.57;;;13.50;57.30;;;;;;5116871;28;20111;-70
2021/11/26 00:18:58;;;;;;;3.60;1.00;;;13.50;57.30;;;;;;5116122;28;20084;-70
2021/11/26 00:21:24;;;;;;;4.38;0.68;;;13.50;57.50;;;;;;5098292;28;20443;-71
2021/11/26 00:23:50;;;;;;;4.05;0.60;;;13.50;57.40;;;;;;5116456;28;20060;-70
2021/11/26 00:26:16;;;;;;;3.40;0.40;;;13.50;57.30;;;;;;5107252;28;20043;-70
2021/11/26 00:28:41;;;;;;;3.92;0.40;;;13.50;57.10;;;;;;5096102;28;20082;-70
2021/11/26 00:31:07;;;;;;;2.70;0.50;;;13.50;57.10;;;;;;5077628;28;20431;-70
2021/11/26 00:33:33;;;;;;;2.78;0.10;;;13.50;57.10;;;;;;5095751;28;20043;-71
2021/11/26 00:35:59;;;;;;;3.03;0.40;;;13.50;57.10;;;;;;5096085;28;20484;-70
2021/11/26 00:38:25;;;;;;;1.63;0.30;;;13.50;57.10;;;;;;5095525;28;20039;-71
2021/11/26 00:40:50;;;;;;;2.78;0.30;;;13.50;57.10;;;;;;5095368;28;20046;-70
2021/11/26 00:43:16;;;;;;;4.15;0.77;;;13.40;57.00;;;;;;5095503;28;20070;-70
2021/11/26 00:45:42;;;;;;;1.95;0.28;;;13.40;57.00;;;;;;5077404;28;20059;-70
2021/11/26 00:48:08;;;;;;;2.08;0.30;;;13.40;57.00;;;;;;5095617;28;20074;-70
2021/11/26 00:50:35;;;;;;;3.70;0.30;;;13.30;57.10;;;;;;5095813;28;20108;-69
2021/11/26 00:53:00;;;;;;;3.05;0.45;;;13.30;57.30;;;;;;5095701;28;20048;-70
2021/11/26 00:55:26;;;;;;;3.35;0.43;;;13.30;57.40;;;;;;5095671;28;20427;-70
2021/11/26 00:57:52;;;;;;;2.25;0.22;;;13.30;57.50;;;;;;5095644;28;20040;-70
2021/11/26 01:00:18;;;;;;;3.45;0.30;;;13.30;57.50;;;;;;5077752;28;20055;-69
2021/11/26 01:02:45;;;;;;;1.35;0.30;;;13.30;57.50;;;;;;5095070;28;20036;-71
2021/11/26 01:05:11;;;;;;;1.80;0.20;;;13.20;57.40;;;;;;5095519;28;20390;-70
2021/11/26 01:07:38;;;;;;;2.25;0.38;;;13.20;57.50;;;;;;5095516;28;20344;-70
2021/11/26 01:10:06;;;;;;;2.60;0.22;;;13.20;57.70;;;;;;5095024;28;20109;-70
2021/11/26 01:12:32;;;;;;;1.77;0.47;;;13.20;57.90;;;;;;5095222;28;20036;-70
2021/11/26 01:14:58;;;;;;;1.20;0.28;;;13.10;58.10;;;;;;5095095;28;20056;-70
2021/11/26 01:17:24;;;;;;;2.97;0.40;;;13.10;58.20;;;;;;5077772;28;20044;-70
2021/11/26 01:19:49;;;;;;;2.22;0.40;;;13.10;58.20;;;;;;5099337;28;20097;-70
2021/11/26 01:22:15;;;;;;;2.63;0.50;;;13.10;58.20;;;;;;5099207;28;20116;-70
2021/11/26 01:24:41;;;;;;;2.78;0.40;;;13.10;58.20;;;;;;5064737;28;20467;-70
2021/11/26 01:27:07;;;;;;;1.15;0.22;;;13.10;58.20;;;;;;5100818;28;20059;-70
2021/11/26 01:29:35;;;;;;;1.23;0.30;;;13.00;58.20;;;;;;5089322;28;20040;-70
2021/11/26 01:32:02;;;;;;;4.03;0.70;;;13.00;58.30;;;;;;5098964;28;20048;-70
2021/11/26 01:34:28;;;;;;;1.50;0.30;;;13.00;58.50;;;;;;5081108;28;20048;-70
2021/11/26 01:36:54;;;;;;;2.83;0.70;;;13.00;58.60;;;;;;5099712;28;20108;-71
2021/11/26 01:39:20;;;;;;;1.88;0.60;;;13.00;58.70;;;;;;5098241;28;20086;-71
2021/11/26 01:41:45;;;;;;;3.70;0.70;;;13.00;58.70;;;;;;5098708;28;20434;-70
2021/11/26 01:44:11;;;;;;;1.85;0.40;;;13.00;58.80;;;;;;5081378;28;20059;-70
2021/11/26 01:46:40;;;;;;;3.30;0.63;;;12.90;58.90;;;;;;5098441;28;20044;-71
2021/11/26 01:49:07;;;;;;;3.80;0.50;;;12.90;58.90;;;;;;5099172;28;20127;-70
2021/11/26 01:51:33;;;;;;;3.55;0.50;;;12.90;59.00;;;;;;5098577;28;20522;-69
2021/11/26 01:54:00;;;;;;;3.17;0.80;;;12.90;59.00;;;;;;5080917;28;20051;-69
2021/11/26 01:56:26;;;;;;;2.58;0.50;;;12.90;58.90;;;;;;5109321;28;20100;-70
2021/11/26 01:58:52;;;;;;;3.35;0.70;;;12.90;58.90;;;;;;5101053;28;20427;-69
2021/11/26 02:01:19;;;;;;;4.05;0.68;;;12.90;58.70;;;;;;5101190;28;20051;-71
2021/11/26 02:03:45;;;;;;;4.95;0.65;;;12.90;58.60;;;;;;5098519;28;20105;-70
2021/11/26 02:06:10;;;;;;;2.63;0.98;;;12.90;58.60;;;;;;5098502;28;20055;-70
2021/11/26 02:08:36;;;;;;;1.85;0.28;;;12.90;58.60;;;;;;5080417;28;20135;-70
2021/11/26 02:11:03;;;;;;;1.20;0.40;;;12.90;59.10;;;;;;5080338;28;20052;-70
2021/11/26 02:13:29;;;;;;;3.10;0.52;;;12.90;58.50;;;;;;5097850;28;20131;-71
2021/11/26 02:15:55;;;;;;;2.20;0.40;;;12.90;58.50;;;;;;5080781;28;20090;-70
2021/11/26 02:18:20;;;;;;;3.78;0.40;;;12.90;58.50;;;;;;5080497;28;20358;-70
2021/11/26 02:20:47;;;;;;;4.35;0.65;;;12.90;58.60;;;;;;5098361;28;20051;-71
2021/11/26 02:23:13;;;;;;;2.08;0.47;;;12.90;58.60;;;;;;5097334;28;20382;-70
2021/11/26 02:25:39;;;;;;;2.40;0.60;;;12.80;58.60;;;;;;5079842;28;20153;-71
2021/11/26 02:28:07;;;;;;;2.78;0.52;;;12.80;58.70;;;;;;5097575;28;20451;-70
2021/11/26 02:30:33;;;;;;;2.45;0.65;;;12.80;58.70;;;;;;5097049;28;20048;-71
2021/11/26 02:33:05;;;;;;;3.58;0.32;;;12.80;58.80;;;;;;5110983;28;20044;-69
2021/11/26 02:35:32;;;;;;;2.83;0.57;;;12.90;58.90;;;;;;5118241;28;20040;-69
2021/11/26 02:37:58;;;;;;;2.38;0.47;;;12.80;58.90;;;;;;5118249;28;20044;-70
2021/11/26 02:40:26;;;;;;;6.95;1.27;;;12.80;58.90;;;;;;5118022;28;20058;-70
2021/11/26 02:42:54;;;;;;;1.65;0.38;;;12.80;59.00;;;;;;5100286;28;20039;-69
2021/11/26 02:45:21;;;;;;;5.97;0.70;;;12.80;59.00;;;;;;5118316;28;20048;-70
2021/11/26 02:47:47;;;;;;;5.65;0.73;;;12.80;59.10;;;;;;5100565;28;20066;-69
2021/11/26 02:50:15;;;;;;;3.08;0.50;;;12.80;59.30;;;;;;5098440;28;20040;-70
2021/11/26 02:52:42;;;;;;;5.45;0.60;;;12.80;59.30;;;;;;5117462;28;20489;-70
2021/11/26 02:55:11;;;;;;;2.95;0.52;;;12.80;59.30;;;;;;5100097;28;20066;-70
2021/11/26 02:57:37;;;;;;;3.42;0.63;;;12.80;59.40;;;;;;5117506;28;20051;-70
2021/11/26 03:00:06;;;;;;;2.60;0.50;;;12.70;59.40;;;;;;5117639;28;20054;-70
2021/11/26 03:02:32;;;;;;;2.35;0.55;;;12.70;59.40;;;;;;5108698;28;20052;-71
2021/11/26 03:04:58;;;;;;;3.75;0.82;;;12.70;59.50;;;;;;5097058;28;20116;-70
2021/11/26 03:07:24;;;;;;;3.88;0.70;;;12.70;59.50;;;;;;5079146;28;20055;-71
2021/11/26 03:09:49;;;;;;;3.72;0.50;;;12.70;59.60;;;;;;5097516;28;20063;-70
2021/11/26 03:12:15;;;;;;;4.95;0.70;;;12.70;59.60;;;;;;5097149;28;20048;-68
2021/11/26 03:14:41;;;;;;;5.90;0.88;;;12.60;59.60;;;;;;5096743;28;20051;-70
2021/11/26 03:17:07;;;;;;;4.78;0.80;;;12.60;59.50;;;;;;5079302;28;20044;-70
2021/11/26 03:19:33;;;;;;;3.08;0.50;;;12.60;59.40;;;;;;5079168;28;20040;-69
2021/11/26 03:21:58;;;;;;;2.92;0.60;;;12.60;59.40;;;;;;5097071;28;20079;-70
2021/11/26 03:24:24;;;;;;;3.28;0.68;;;12.60;59.40;;;;;;5096868;28;20142;-69
2021/11/26 03:26:50;;;;;;;2.70;0.38;;;12.60;59.40;;;;;;5097190;28;20044;-69
2021/11/26 03:29:17;;;;;;;5.22;1.15;;;12.60;59.40;;;;;;5097175;28;20044;-70
2021/11/26 03:31:42;;;;;;;4.07;0.60;;;12.60;59.40;;;;;;5080831;28;20039;-70
2021/11/26 03:34:08;;;;;;;3.70;0.63;;;12.60;59.50;;;;;;5098661;28;20044;-70
2021/11/26 03:36:34;;;;;;;4.78;0.60;;;12.60;59.50;;;;;;5116851;28;20458;-70
2021/11/26 03:39:00;;;;;;;4.53;0.98;;;12.60;59.50;;;;;;5116792;28;20126;-71
2021/11/26 03:41:26;;;;;;;2.15;0.65;;;12.60;59.40;;;;;;5117005;28;20082;-69
2021/11/26 03:43:52;;;;;;;3.55;0.40;;;12.60;59.30;;;;;;5117008;28;20126;-70
2021/11/26 03:46:19;;;;;;;3.45;0.60;;;12.60;59.30;;;;;;5098335;28;20470;-70
2021/11/26 03:48:45;;;;;;;2.28;0.68;;;12.60;59.30;;;;;;5116705;28;20044;-69
2021/11/26 03:51:12;;;;;;;3.28;0.52;;;12.60;59.30;;;;;;5098837;28;20108;-69
2021/11/26 03:53:38;;;;;;;3.20;0.38;;;12.60;59.30;;;;;;5116564;28;20094;-70
2021/11/26 03:56:04;;;;;;;4.28;0.63;;;12.60;59.20;;;;;;5116639;28;20071;-70
2021/11/26 03:58:31;;;;;;;3.92;0.60;;;12.50;59.10;;;;;;5116579;28;20043;-69
2021/11/26 04:00:56;;;;;;;2.83;0.47;;;12.50;59.10;;;;;;5116632;28;20366;-70
2021/11/26 04:03:22;;;;;;;1.90;0.45;;;12.50;59.00;;;;;;5096269;28;20058;-71
2021/11/26 04:05:48;;;;;;;1.67;0.40;;;12.50;59.00;;;;;;5116195;28;20059;-70
2021/11/26 04:08:14;;;;;;;2.65;0.40;;;12.50;59.00;;;;;;5116611;28;20057;-70
2021/11/26 04:10:40;;;;;;;3.10;0.43;;;12.50;59.00;;;;;;5116191;28;20348;-70
2021/11/26 04:13:08;;;;;;;2.17;0.40;;;12.50;58.90;;;;;;5116421;28;20044;-70
2021/11/26 04:15:37;;;;;;;2.08;0.40;;;12.50;58.90;;;;;;5116341;28;20362;-70
2021/11/26 04:18:04;;;;;;;2.13;0.30;;;12.50;58.90;;;;;;5116462;28;20055;-71
2021/11/26 04:20:31;;;;;;;1.17;0.20;;;12.40;58.90;;;;;;5116002;28;20134;-69
2021/11/26 04:22:58;;;;;;;2.90;0.40;;;12.40;58.90;;;;;;5116459;28;20043;-70
2021/11/26 04:25:23;;;;;;;2.47;0.40;;;12.40;59.00;;;;;;5116213;28;20116;-70
2021/11/26 04:27:50;;;;;;;1.45;0.20;;;12.40;59.10;;;;;;5096323;28;20382;-69
2021/11/26 04:30:18;;;;;;;3.65;0.60;;;12.30;59.10;;;;;;5098021;28;20467;-70
2021/11/26 04:32:45;;;;;;;2.97;0.25;;;12.30;59.10;;;;;;5082306;28;20044;-69
2021/11/26 04:35:11;;;;;;;3.28;0.43;;;12.30;59.20;;;;;;5095641;28;20036;-70
2021/11/26 04:37:38;;;;;;;4.32;0.47;;;12.30;59.40;;;;;;5096168;28;20094;-70
2021/11/26 04:40:05;;;;;;;2.95;0.50;;;12.30;59.50;;;;;;5077803;28;20048;-70
2021/11/26 04:42:31;;;;;;;3.20;0.57;;;12.30;59.60;;;;;;5095736;28;20415;-70
2021/11/26 04:44:57;;;;;;;2.78;0.50;;;12.30;59.60;;;;;;5077226;28;20386;-70
2021/11/26 04:47:23;;;;;;;3.70;0.30;;;12.30;59.50;;;;;;5095187;28;20044;-69
2021/11/26 04:49:49;;;;;;;4.43;0.50;;;12.30;59.30;;;;;;5077755;28;20048;-70
2021/11/26 04:52:14;;;;;;;3.15;0.52;;;12.30;59.30;;;;;;5094784;28;20059;-70
2021/11/26 04:54:40;;;;;;;2.00;0.38;;;12.30;59.30;;;;;;5095464;28;20123;-70
2021/11/26 04:57:06;;;;;;;2.15;0.30;;;12.30;59.20;;;;;;5095983;28;20438;-71
2021/11/26 04:59:32;;;;;;;3.33;0.20;;;12.30;59.10;;;;;;5095178;28;20052;-70
2021/11/26 05:01:57;;;;;;;2.47;0.40;;;12.30;59.00;;;;;;5102920;28;20036;-69
2021/11/26 05:04:23;;;;;;;2.80;0.30;;;12.30;58.90;;;;;;5112028;28;20048;-69
2021/11/26 05:06:49;;;;;;;2.13;0.20;;;12.30;58.90;;;;;;5115214;28;20051;-70
2021/11/26 05:09:14;;;;;;;2.63;0.57;;;12.30;58.90;;;;;;5097714;28;20048;-72
2021/11/26 05:11:40;;;;;;;2.88;0.60;;;12.30;59.20;;;;;;5115365;28;20043;-73
2021/11/26 05:14:08;;;;;;;2.80;0.25;;;12.30;59.80;;;;;;5116127;28;20455;-75
2021/11/26 05:16:34;;;;;;;4.43;0.47;;;12.30;60.00;;;;;;5114950;28;20081;-74
2021/11/26 05:18:59;;;;;;;8.05;0.98;;;12.50;62.40;;;;;;5097570;28;20051;-72
2021/11/26 05:21:25;;;;;;;3.25;0.50;;;12.60;65.30;;;;;;5115716;28;20116;-73
2021/11/26 05:23:51;;;;;;;4.68;0.63;;;12.70;64.70;;;;;;5115281;28;20048;-73
2021/11/26 05:26:17;;;;;;;6.63;0.63;;;13.00;63.80;;;;;;5115530;28;20044;-72
2021/11/26 05:28:43;;;;;;;5.28;0.70;;;13.20;62.80;;;;;;5115115;28;20039;-73
2021/11/26 05:31:08;;;;;;;4.03;0.40;;;13.30;63.60;;;;;;5075817;28;20123;-77
2021/11/26 05:33:34;;;;;;;4.68;0.60;;;13.70;63.20;;;;;;5077085;28;20119;-72
2021/11/26 05:36:00;;;;;;;9.25;0.98;;;14.00;62.80;;;;;;5094814;28;20040;-73
2021/11/26 05:38:26;;;;;;;5.90;1.45;;;14.20;62.50;;;;;;5094904;28;20062;-73
2021/11/26 05:40:52;;;;;;;7.68;0.82;;;14.50;62.30;;;;;;5094830;28;20123;-71
2021/11/26 05:43:18;;;;;;;8.85;0.75;;;14.70;62.40;;;;;;5095061;28;20040;-72
2021/11/26 05:45:44;;;;;;;6.10;0.60;;;14.90;62.30;;;;;;5095030;28;20059;-74
2021/11/26 05:48:10;;;;;;;5.68;0.60;;;15.20;62.10;;;;;;5094674;28;20048;-71
2021/11/26 05:50:36;;;;;;;7.90;1.05;;;15.30;62.10;;;;;;5094613;28;20044;-76
2021/11/26 05:53:02;;;;;;;5.53;0.63;;;15.50;62.00;;;;;;5094201;28;20044;-75
2021/11/26 05:55:33;;;;;;;5.75;0.90;;;15.70;61.90;;;;;;5077532;28;20052;-75
2021/11/26 05:58:00;;;;;;;7.90;1.60;;;15.80;62.10;;;;;;5094586;28;20051;-73
2021/11/26 06:00:27;;;;;;;4.93;0.80;;;15.80;62.20;;;;;;5077029;28;20058;-72
2021/11/26 06:02:53;;;;;;;11.32;1.23;;;16.00;62.60;;;;;;5090057;28;20115;-72
2021/11/26 06:05:20;;;;;;;8.57;1.10;;;16.00;62.60;;;;;;5105513;28;20052;-73
2021/11/26 06:07:46;;;;;;;9.23;1.45;;;16.20;62.70;;;;;;5098371;28;20044;-76
2021/11/26 06:10:14;;;;;;;7.57;0.93;;;16.20;62.90;;;;;;5115276;28;20040;-76
2021/11/26 06:12:42;;;;;;;4.57;0.43;;;16.20;62.80;;;;;;5098148;28;20516;-75
2021/11/26 06:15:09;;;;;;;3.78;0.98;;;16.30;63.00;;;;;;5098502;28;20056;-72
2021/11/26 06:17:35;;;;;;;7.82;1.00;;;16.30;62.90;;;;;;5098329;28;20355;-72
2021/11/26 06:20:01;;;;;;;9.23;0.95;;;16.40;62.90;;;;;;5097917;28;20374;-75
2021/11/26 06:22:27;;;;;;;3.72;0.63;;;16.40;62.90;;;;;;5098043;28;20048;-74
2021/11/26 06:24:53;;;;;;;10.00;1.13;;;16.50;63.10;;;;;;5080219;28;20048;-75
2021/11/26 06:27:19;;;;;;;3.20;0.60;;;16.60;63.20;;;;;;5079646;28;20055;-79
2021/11/26 06:29:44;;;;;;;7.40;1.10;;;16.60;63.10;;;;;;5097686;28;20044;-79
2021/11/26 06:32:10;;;;;;;2.70;0.52;;;16.70;63.10;;;;;;5112322;28;20047;-81
2021/11/26 06:34:36;;;;;;;4.80;0.70;;;16.80;62.90;;;;;;5118301;28;20040;-79
2021/11/26 06:37:02;;;;;;;7.07;1.30;;;16.80;63.00;;;;;;5100497;28;20050;-79
2021/11/26 06:39:28;;;;;;;8.20;1.40;;;16.90;63.10;;;;;;5099931;28;20155;-78
2021/11/26 06:41:53;;;;;;;12.35;1.35;;;17.00;63.00;;;;;;5118138;28;20075;-76
2021/11/26 06:44:19;;;;;;;7.65;1.02;;;17.00;63.10;;;;;;5117727;28;20127;-78
2021/11/26 06:46:45;;;;;;;4.20;0.50;;;17.00;62.80;;;;;;5100048;28;20050;-77
2021/11/26 06:49:10;;;;;;;11.18;1.08;;;17.00;62.40;;;;;;5118075;28;20206;-75
2021/11/26 06:51:36;;;;;;;12.48;0.93;;;17.10;62.50;;;;;;5117946;28;20051;-75
2021/11/26 06:54:02;;;;;;;11.32;1.15;;;17.20;62.60;;;;;;5118492;28;20342;-76
2021/11/26 06:56:28;;;;;;;6.95;1.02;;;17.20;62.80;;;;;;5107977;28;20123;-82
2021/11/26 06:58:58;;;;;;;13.20;1.23;;;17.20;62.60;;;;;;5116651;28;20126;-70
2021/11/26 07:01:23;;;;;;;14.40;1.15;;;17.20;62.80;;;;;;5115320;28;20055;-74
2021/11/26 07:03:49;;;;;;;18.23;1.98;;;17.30;60.80;;;;;;5105541;28;20459;-72
2021/11/26 07:06:15;;;;;;;9.43;1.48;;;17.20;62.00;;;;;;5096942;28;20044;-72
2021/11/26 07:08:41;;;;;;;18.15;1.60;;;17.20;62.10;;;;;;5114238;28;20092;-73
2021/11/26 07:11:06;;;;;;;13.80;1.77;;;17.20;62.30;;;;;;5117358;28;20066;-73
2021/11/26 07:13:32;;;;;;;8.73;1.40;;;17.30;61.60;;;;;;5117839;28;20130;-74
2021/11/26 07:15:58;;;;;;;8.05;1.23;;;17.30;59.40;;;;;;5117047;28;20043;-74
2021/11/26 07:18:24;;;;;;;8.20;1.58;;;17.30;58.60;;;;;;5117396;28;20047;-74
2021/11/26 07:20:49;;;;;;;5.93;1.10;;;17.20;59.20;;;;;;5117272;28;20061;-73
2021/11/26 07:23:15;;;;;;;5.70;1.35;;;17.10;58.60;;;;;;5117386;28;20454;-74
2021/11/26 07:25:41;;;;;;;5.05;1.02;;;17.00;59.00;;;;;;5117070;28;20046;-74
2021/11/26 07:28:07;;;;;;;7.32;0.70;;;16.90;58.90;;;;;;5117793;28;20401;-74
2021/11/26 07:30:32;;;;;;;5.53;1.00;;;16.90;59.20;;;;;;5117043;28;20382;-73
2021/11/26 07:32:58;;;;;;;9.00;1.00;;;16.80;59.40;;;;;;5115411;28;20119;-73
2021/11/26 07:35:25;;;;;;;5.25;0.80;;;16.70;59.60;;;;;;5116914;28;20336;-74
2021/11/26 07:37:51;;;;;;;8.13;1.35;;;16.70;59.50;;;;;;5116875;28;20074;-74
2021/11/26 07:40:16;;;;;;;7.38;1.13;;;16.60;59.90;;;;;;5116660;28;20039;-74
2021/11/26 07:42:43;;;;;;;5.80;1.42;;;16.50;59.10;;;;;;5116662;28;20095;-71
2021/11/26 07:45:10;;;;;;;7.88;1.30;;;16.50;59.10;;;;;;5116176;28;20533;-73
2021/11/26 07:47:37;;;;;;;8.20;1.02;;;16.40;59.10;;;;;;5116603;28;20073;-73
2021/11/26 07:50:04;;;;;;;5.03;0.90;;;16.50;59.60;;;;;;5116437;28;20108;-73
2021/11/26 07:52:31;;;;;;;3.92;0.80;;;16.50;59.70;;;;;;5116598;28;20039;-72
2021/11/26 07:54:57;;;;;;;6.75;0.95;;;16.50;59.90;;;;;;5116501;28;20062;-73
2021/11/26 07:57:23;;;;;;;7.20;0.75;;;16.50;59.80;;;;;;5116324;28;20122;-72
2021/11/26 07:59:48;;;;;;;4.03;1.40;;;16.60;59.70;;;;;;5098340;28;20116;-73
2021/11/26 08:02:14;;;;;;;6.07;1.02;;;16.70;59.80;;;;;;5106565;28;20430;-72
2021/11/26 08:04:40;;;;;;;5.22;1.00;;;16.70;59.70;;;;;;5095881;28;20047;-73
2021/11/26 08:07:07;;;;;;;7.80;1.20;;;16.70;59.70;;;;;;5095982;28;20504;-73
2021/11/26 08:09:33;;;;;;;4.65;1.20;;;16.70;59.60;;;;;;5095894;28;20052;-72
2021/11/26 08:11:59;;;;;;;2.92;0.93;;;16.70;59.50;;;;;;5095648;28;20127;-73
2021/11/26 08:14:25;;;;;;;6.07;1.08;;;16.80;59.50;;;;;;5095466;28;20508;-72
2021/11/26 08:16:54;;;;;;;4.30;0.70;;;16.80;59.50;;;;;;5095737;28;20059;-73
2021/11/26 08:19:21;;;;;;;7.32;0.77;;;16.80;59.40;;;;;;5095618;28;20048;-72
2021/11/26 08:21:48;;;;;;;4.63;0.80;;;16.80;59.30;;;;;;5095729;28;20054;-73
2021/11/26 08:24:15;;;;;;;5.53;0.95;;;16.80;59.40;;;;;;5095440;28;20055;-73
2021/11/26 08:26:42;;;;;;;3.38;0.68;;;16.80;59.40;;;;;;5094793;28;20469;-73
2021/11/26 08:29:09;;;;;;;3.88;0.93;;;16.80;59.40;;;;;;5095249;28;20051;-73
2021/11/26 08:31:36;;;;;;;2.67;0.90;;;16.80;59.50;;;;;;5095923;28;20136;-73
2021/11/26 08:34:03;;;;;;;4.30;0.80;;;16.80;59.30;;;;;;5095760;28;20085;-73
2021/11/26 08:36:28;;;;;;;2.78;0.70;;;16.80;59.40;;;;;;5095277;28;20073;-73
2021/11/26 08:38:55;;;;;;;1.90;0.45;;;16.80;59.40;;;;;;5100367;28;20466;-72
2021/11/26 08:41:22;;;;;;;4.70;0.90;;;16.80;59.50;;;;;;5115643;28;20160;-73
2021/11/26 08:43:48;;;;;;;3.70;0.80;;;16.80;59.50;;;;;;5115155;28;20450;-73
2021/11/26 08:46:14;;;;;;;4.18;0.70;;;16.80;59.50;;;;;;5115492;28;20054;-72
2021/11/26 08:48:41;;;;;;;2.85;0.50;;;16.80;59.50;;;;;;5115903;28;20056;-73
2021/11/26 08:51:08;;;;;;;1.80;0.70;;;16.80;59.30;;;;;;5115661;28;20436;-73
2021/11/26 08:53:37;;;;;;;3.40;0.88;;;16.80;59.30;;;;;;5115386;28;20050;-73
2021/11/26 08:56:03;;;;;;;4.32;0.93;;;16.80;59.40;;;;;;5115670;28;20349;-73
2021/11/26 08:58:30;;;;;;;4.90;1.25;;;16.70;59.40;;;;;;5115527;28;20051;-72
2021/11/26 09:00:55;;;;;;;7.15;1.20;;;16.70;59.40;;;;;;5115506;28;20082;-73
2021/11/26 09:03:21;;;;;;;5.15;0.90;;;16.80;59.40;;;;;;5114011;28;20044;-71
2021/11/26 09:05:47;;;;;;;4.30;1.05;;;16.80;59.40;;;;;;5115870;28;20358;-71
2021/11/26 09:08:16;;;;;;;4.82;0.85;;;16.80;59.40;;;;;;5115272;28;20342;-70
2021/11/26 09:10:44;;;;;;;5.75;1.00;;;16.70;59.30;;;;;;5115523;28;20047;-71
2021/11/26 09:13:11;;;;;;;6.05;1.23;;;16.80;59.40;;;;;;5115781;28;20398;-72
2021/11/26 09:15:38;;;;;;;7.63;0.93;;;16.60;59.40;;;;;;5115512;28;20088;-71
2021/11/26 09:18:05;;;;;;;5.25;0.80;;;16.60;59.60;;;;;;5115534;28;20094;-72
2021/11/26 09:20:32;;;;;;;5.20;1.30;;;16.60;59.70;;;;;;5116250;28;20047;-72
2021/11/26 09:22:57;;;;;;;4.18;0.85;;;16.60;59.70;;;;;;5115504;28;20348;-72
2021/11/26 09:25:23;;;;;;;2.50;0.95;;;16.50;59.70;;;;;;5115014;28;20051;-72
2021/11/26 09:27:49;;;;;;;3.35;0.60;;;16.50;59.70;;;;;;5115531;28;20044;-72
2021/11/26 09:30:18;;;;;;;4.15;0.68;;;16.50;59.70;;;;;;5115477;28;20048;-71
2021/11/26 09:32:44;;;;;;;9.93;1.17;;;16.50;59.70;;;;;;5102302;28;20047;-72
2021/11/26 09:35:10;;;;;;;4.13;0.90;;;16.30;58.90;;;;;;5094962;28;20079;-72
2021/11/26 09:37:37;;;;;;;4.72;0.77;;;16.30;59.70;;;;;;5094807;28;20091;-72
2021/11/26 09:40:05;;;;;;;5.28;0.57;;;16.30;60.00;;;;;;5097846;28;20040;-72
2021/11/26 09:42:31;;;;;;;5.03;0.65;;;16.20;60.10;;;;;;5098833;28;20040;-72
2021/11/26 09:45:00;;;;;;;5.90;1.02;;;16.20;60.20;;;;;;5098887;28;20056;-74
2021/11/26 09:47:25;;;;;;;7.18;1.30;;;16.20;62.90;;;;;;5098581;28;20185;-74
2021/11/26 09:49:51;;;;;;;10.63;1.20;;;16.20;61.70;;;;;;5098744;28;20459;-73
2021/11/26 09:52:17;;;;;;;7.13;0.90;;;16.10;61.20;;;;;;5098222;28;20076;-74
2021/11/26 09:54:45;;;;;;;4.63;0.88;;;16.10;61.30;;;;;;5080610;28;20048;-71
2021/11/26 09:57:12;;;;;;;4.53;1.00;;;16.00;61.40;;;;;;5098345;28;20466;-76
2021/11/26 09:59:39;;;;;;;6.07;0.75;;;16.00;61.50;;;;;;5098445;28;20131;-72
2021/11/26 10:02:16;;;;;;;4.53;1.10;;;16.00;61.60;;;;;;5086646;28;20396;-74
2021/11/26 10:04:42;;;;;;;7.75;1.02;;;16.00;61.50;;;;;;5118618;28;20058;-73
2021/11/26 10:07:08;;;;;;;5.75;1.27;;;16.00;61.30;;;;;;5118740;28;20066;-73
2021/11/26 10:09:37;;;;;;;11.85;1.90;;;16.10;60.60;;;;;;5101008;28;20084;-74
2021/11/26 10:12:06;;;;;;;7.13;1.48;;;16.10;59.00;;;;;;5100846;28;20079;-72
2021/11/26 10:14:35;;;;;;;8.15;1.67;;;16.10;58.50;;;;;;5118914;28;20056;-74
2021/11/26 10:17:16;;;;;;;7.32;1.50;;;16.10;56.80;;;;;;5118932;28;20042;-74
2021/11/26 10:19:46;;;;;;;11.10;2.88;;;15.90;54.20;;;;;;5100707;28;20047;-75
2021/11/26 10:22:32;;;;;;;5.07;1.77;;;15.80;54.80;;;;;;5100515;28;20047;-72
2021/11/26 10:25:08;;;;;;;9.73;2.20;;;15.60;54.10;;;;;;5099896;28;20051;-72
2021/11/26 10:27:49;;;;;;;4.30;1.40;;;15.40;54.20;;;;;;5118692;28;20197;-76
2021/11/26 10:30:47;;;;;;;8.98;2.05;;;15.40;54.40;;;;;;5100686;28;20039;-71
2021/11/26 10:33:17;;;;;;;8.00;2.08;;;15.30;54.50;;;;;;5078381;28;20403;-70
2021/11/26 10:35:53;;;;;;;5.20;1.45;;;15.30;54.80;;;;;;5098495;28;20044;-71
2021/11/26 10:38:22;;;;;;;4.57;1.35;;;15.40;55.10;;;;;;5098183;28;20091;-71
2021/11/26 10:41:09;;;;;;;5.95;1.63;;;15.40;55.30;;;;;;5097501;28;20048;-71
2021/11/26 10:44:00;;;;;;;4.57;1.02;;;15.50;55.50;;;;;;5097928;28;20055;-71
2021/11/26 10:59:34;;;;;;;5.28;1.27;;;15.50;56.40;;;;;;5097335;28;20056;-71
2021/11/26 11:02:00;;;;;;;5.78;1.10;;;15.50;56.70;;;;;;5101171;28;20089;-71
2021/11/26 11:04:28;;;;;;;4.57;1.50;;;15.50;56.70;;;;;;5079165;28;20056;-71
2021/11/26 11:07:09;;;;;;;4.00;1.00;;;15.50;56.80;;;;;;5097033;28;20116;-70
2021/11/26 11:09:56;;;;;;;4.53;1.08;;;15.70;57.00;;;;;;5096933;28;20044;-70
2021/11/26 11:12:34;;;;;;;3.70;0.90;;;15.80;57.00;;;;;;5096973;28;20415;-70
2021/11/26 11:15:04;;;;;;;3.60;1.05;;;16.00;57.00;;;;;;5096912;28;20062;-71
2021/11/26 11:17:30;;;;;;;5.22;0.90;;;16.00;57.00;;;;;;5096948;28;20101;-70
2021/11/26 11:20:02;;;;;;;7.95;1.25;;;16.10;57.00;;;;;;5096814;28;20044;-71
2021/11/26 11:22:31;;;;;;;4.97;1.38;;;16.10;57.10;;;;;;5096830;28;20122;-71
2021/11/26 11:24:57;;;;;;;4.95;1.00;;;16.10;57.20;;;;;;5096866;28;20044;-70
2021/11/26 11:27:23;;;;;;;3.22;0.93;;;16.20;57.30;;;;;;5096595;28;20416;-70
2021/11/26 11:29:49;;;;;;;3.67;1.10;;;16.20;57.50;;;;;;5096703;28;20040;-71
2021/11/26 11:32:15;;;;;;;3.88;0.60;;;16.20;57.40;;;;;;5097313;28;20459;-70
2021/11/26 11:34:41;;;;;;;3.03;0.70;;;16.20;57.50;;;;;;5096488;28;20098;-73
2021/11/26 11:37:10;;;;;;;5.38;0.98;;;16.20;57.50;;;;;;5096426;28;20048;-70
2021/11/26 11:39:49;;;;;;;3.60;0.95;;;16.20;57.60;;;;;;5108093;28;20070;-70
2021/11/26 11:42:29;;;;;;;5.93;1.10;;;16.30;57.70;;;;;;5116565;28;20031;-71
2021/11/26 11:45:04;;;;;;;3.78;1.15;;;16.30;57.70;;;;;;5116975;28;20251;-71
2021/11/26 11:47:31;;;;;;;7.93;1.20;;;16.40;57.60;;;;;;5116528;28;20065;-72
2021/11/26 11:50:25;;;;;;;5.18;1.25;;;16.50;57.50;;;;;;5116732;28;20100;-71
2021/11/26 11:52:58;;;;;;;5.82;1.15;;;16.50;57.30;;;;;;5097804;28;20142;-71
2021/11/26 11:55:34;;;;;;;2.70;0.80;;;16.70;57.20;;;;;;5113647;28;20052;-73
2021/11/26 11:58:22;;;;;;;3.67;1.02;;;16.80;57.10;;;;;;5116215;28;20273;-71
2021/11/26 12:00:52;;;;;;;2.75;0.73;;;16.80;57.00;;;;;;5114057;28;20132;-71
2021/11/26 12:03:20;;;;;;;6.60;1.00;;;16.90;57.00;;;;;;5113107;28;20108;-71
2021/11/26 12:06:01;;;;;;;7.18;1.17;;;17.00;56.90;;;;;;5116059;28;20086;-71
2021/11/26 12:08:28;;;;;;;5.22;1.45;;;17.10;56.80;;;;;;5116215;28;20048;-71
2021/11/26 12:10:57;;;;;;;3.60;1.10;;;17.10;56.70;;;;;;5116195;28;20331;-72
2021/11/26 12:13:35;;;;;;;4.55;1.10;;;17.10;56.50;;;;;;5115983;28;20044;-71
2021/11/26 12:16:14;;;;;;;5.63;1.10;;;17.20;56.60;;;;;;5096465;28;20451;-71
2021/11/26 12:18:48;;;;;;;5.70;1.25;;;17.10;56.70;;;;;;5095542;28;20048;-72
2021/11/26 12:21:17;;;;;;;3.38;1.10;;;17.10;56.70;;;;;;5095735;28;20052;-72
2021/11/26 12:23:54;;;;;;;2.80;1.00;;;17.20;56.60;;;;;;5095975;28;20040;-72
2021/11/26 12:26:28;;;;;;;5.60;1.30;;;17.20;56.70;;;;;;5095152;28;20117;-72
2021/11/26 12:28:57;;;;;;;6.35;1.10;;;17.10;56.70;;;;;;5095505;28;20047;-72
2021/11/26 12:31:35;;;;;;;3.60;1.45;;;17.10;56.80;;;;;;5095712;28;20463;-71
2021/11/26 12:34:08;;;;;;;5.07;1.55;;;17.10;57.40;;;;;;5115535;28;20052;-72
2021/11/26 12:36:37;;;;;;;10.63;1.48;;;17.10;56.90;;;;;;5115994;28;20043;-71
2021/11/26 12:39:07;;;;;;;4.15;1.27;;;16.90;55.70;;;;;;5115799;28;20048;-71
2021/11/26 12:41:39;;;;;;;4.50;1.42;;;16.90;56.90;;;;;;5115704;28;20062;-70
2021/11/26 12:44:08;;;;;;;4.50;1.58;;;17.00;57.00;;;;;;5115584;28;20378;-71
2021/11/26 12:46:38;;;;;;;6.93;1.63;;;17.00;57.10;;;;;;5115379;28;20099;-71
2021/11/26 12:51:53;;;;;;;4.88;1.20;;;17.00;57.10;;;;;;5115382;28;20055;-71
2021/11/26 12:54:27;;;;;;;4.18;1.20;;;17.00;57.10;;;;;;5094229;28;20039;-70
2021/11/26 12:56:54;;;;;;;5.80;1.42;;;17.00;57.10;;;;;;5115574;28;20134;-71
2021/11/26 12:59:38;;;;;;;6.72;1.88;;;17.10;57.10;;;;;;5115726;28;20439;-73
2021/11/26 13:02:05;;;;;;;;;;;17.10;57.10;;;;;;5114623;28;20348;-73
2021/11/26 13:04:31;;;;;;;7.05;1.95;;;17.00;56.80;;;;;;5115495;28;19931;-73